sensor_id;sensor_type;location;lat;lon;timestamp;pressure;altitude;pressure_sealevel;temperature;humidity
30875;BME280;17581;43.222;27.924;2023-04-21T00:02:09;100251.84;;;14.29;68.27
30875;BME280;17581;43.222;27.924;2023-04-21T00:04:35;100237.94;;;14.24;67.86
30875;BME280;17581;43.222;27.924;2023-04-21T00:07:00;100245.75;;;14.27;68.25
30875;BME280;17581;43.222;27.924;2023-04-21T00:09:27;100243.34;;;14.24;68.20
30875;BME280;17581;43.222;27.924;2023-04-21T00:11:53;100234.91;;;14.27;68.01
30875;BME280;17581;43.222;27.924;2023-04-21T00:14:18;100231.22;;;14.28;67.81
30875;BME280;17581;43.222;27.924;2023-04-21T00:16:44;100230.81;;;14.23;68.12
30875;BME280;17581;43.222;27.924;2023-04-21T00:19:09;100236.53;;;14.19;68.17
30875;BME280;17581;43.222;27.924;2023-04-21T00:21:37;100234.91;;;14.27;68.31
30875;BME280;17581;43.222;27.924;2023-04-21T00:24:03;100232.00;;;14.20;68.06
30875;BME280;17581;43.222;27.924;2023-04-21T00:26:29;100228.97;;;14.23;68.23
30875;BME280;17581;43.222;27.924;2023-04-21T00:28:54;100225.91;;;14.18;68.15
30875;BME280;17581;43.222;27.924;2023-04-21T00:31:19;100224.69;;;14.12;67.91
30875;BME280;17581;43.222;27.924;2023-04-21T00:33:46;100227.38;;;14.12;68.30
30875;BME280;17581;43.222;27.924;2023-04-21T00:36:11;100223.50;;;14.15;68.05
30875;BME280;17581;43.222;27.924;2023-04-21T00:38:37;100233.31;;;14.16;68.15
30875;BME280;17581;43.222;27.924;2023-04-21T00:41:02;100227.06;;;14.15;68.37
30875;BME280;17581;43.222;27.924;2023-04-21T00:43:27;100220.94;;;14.13;68.48
30875;BME280;17581;43.222;27.924;2023-04-21T00:45:53;100220.72;;;14.07;68.89
30875;BME280;17581;43.222;27.924;2023-04-21T00:48:18;100220.28;;;14.11;68.60
30875;BME280;17581;43.222;27.924;2023-04-21T00:50:44;100215.81;;;14.02;68.70
30875;BME280;17581;43.222;27.924;2023-04-21T00:53:10;100214.31;;;14.08;69.08
30875;BME280;17581;43.222;27.924;2023-04-21T00:55:36;100216.88;;;14.09;68.91
30875;BME280;17581;43.222;27.924;2023-04-21T00:58:02;100215.84;;;14.10;69.22
30875;BME280;17581;43.222;27.924;2023-04-21T01:00:28;100210.66;;;14.17;69.07
30875;BME280;17581;43.222;27.924;2023-04-21T01:02:54;100187.13;;;14.09;68.92
30875;BME280;17581;43.222;27.924;2023-04-21T01:05:20;100199.91;;;14.25;69.18
30875;BME280;17581;43.222;27.924;2023-04-21T01:07:46;100192.09;;;14.22;68.90
30875;BME280;17581;43.222;27.924;2023-04-21T01:10:11;100201.69;;;14.16;69.11
30875;BME280;17581;43.222;27.924;2023-04-21T01:12:44;100195.66;;;14.23;69.15
30875;BME280;17581;43.222;27.924;2023-04-21T01:15:15;100193.13;;;14.21;68.86
30875;BME280;17581;43.222;27.924;2023-04-21T01:17:42;100204.59;;;14.15;69.09
30875;BME280;17581;43.222;27.924;2023-04-21T01:20:10;100189.22;;;14.15;69.13
30875;BME280;17581;43.222;27.924;2023-04-21T01:22:37;100193.22;;;14.11;69.33
30875;BME280;17581;43.222;27.924;2023-04-21T01:25:03;100187.81;;;14.11;69.57
30875;BME280;17581;43.222;27.924;2023-04-21T01:27:29;100184.13;;;14.12;69.52
30875;BME280;17581;43.222;27.924;2023-04-21T01:29:55;100177.16;;;14.10;69.21
30875;BME280;17581;43.222;27.924;2023-04-21T01:32:23;100187.19;;;14.17;69.13
30875;BME280;17581;43.222;27.924;2023-04-21T01:34:49;100178.00;;;14.10;68.96
30875;BME280;17581;43.222;27.924;2023-04-21T01:37:18;100176.09;;;14.03;69.07
30875;BME280;17581;43.222;27.924;2023-04-21T01:39:48;100173.41;;;13.85;69.83
30875;BME280;17581;43.222;27.924;2023-04-21T01:42:16;100174.75;;;13.81;70.02
30875;BME280;17581;43.222;27.924;2023-04-21T01:44:42;100178.66;;;13.87;70.09
30875;BME280;17581;43.222;27.924;2023-04-21T01:47:08;100178.81;;;13.85;70.18
30875;BME280;17581;43.222;27.924;2023-04-21T01:49:33;100182.69;;;13.83;70.56
30875;BME280;17581;43.222;27.924;2023-04-21T01:51:58;100176.09;;;13.85;70.56
30875;BME280;17581;43.222;27.924;2023-04-21T01:54:24;100172.72;;;13.83;70.71
30875;BME280;17581;43.222;27.924;2023-04-21T01:56:49;100179.53;;;13.87;70.68
30875;BME280;17581;43.222;27.924;2023-04-21T01:59:15;100175.13;;;13.86;70.42
30875;BME280;17581;43.222;27.924;2023-04-21T02:01:41;100174.44;;;13.84;70.58
30875;BME280;17581;43.222;27.924;2023-04-21T02:04:07;100178.75;;;13.77;70.86
30875;BME280;17581;43.222;27.924;2023-04-21T02:06:32;100179.59;;;13.78;71.13
30875;BME280;17581;43.222;27.924;2023-04-21T02:08:58;100178.44;;;13.80;71.56
30875;BME280;17581;43.222;27.924;2023-04-21T02:11:24;100174.88;;;13.80;71.42
30875;BME280;17581;43.222;27.924;2023-04-21T02:13:53;100178.97;;;13.84;71.45
30875;BME280;17581;43.222;27.924;2023-04-21T02:16:21;100169.34;;;13.81;71.50
30875;BME280;17581;43.222;27.924;2023-04-21T02:18:53;100169.03;;;13.84;70.87
30875;BME280;17581;43.222;27.924;2023-04-21T02:21:19;100163.22;;;13.79;71.23
30875;BME280;17581;43.222;27.924;2023-04-21T02:23:48;100170.19;;;13.82;71.45
30875;BME280;17581;43.222;27.924;2023-04-21T02:26:13;100152.25;;;13.81;71.44
30875;BME280;17581;43.222;27.924;2023-04-21T02:28:39;100166.63;;;13.81;71.64
30875;BME280;17581;43.222;27.924;2023-04-21T02:31:04;100169.78;;;13.77;71.59
30875;BME280;17581;43.222;27.924;2023-04-21T02:33:30;100164.06;;;13.80;71.51
30875;BME280;17581;43.222;27.924;2023-04-21T02:35:55;100166.94;;;13.78;71.39
30875;BME280;17581;43.222;27.924;2023-04-21T02:38:21;100171.81;;;13.75;71.69
30875;BME280;17581;43.222;27.924;2023-04-21T02:40:46;100162.53;;;13.77;71.76
30875;BME280;17581;43.222;27.924;2023-04-21T02:43:14;100157.44;;;13.74;71.58
30875;BME280;17581;43.222;27.924;2023-04-21T02:45:40;100148.13;;;13.69;71.67
30875;BME280;17581;43.222;27.924;2023-04-21T02:48:05;100148.25;;;13.67;71.49
30875;BME280;17581;43.222;27.924;2023-04-21T02:50:31;100154.47;;;13.59;71.64
30875;BME280;17581;43.222;27.924;2023-04-21T02:52:56;100154.78;;;13.56;72.04
30875;BME280;17581;43.222;27.924;2023-04-21T02:55:22;100153.91;;;13.56;72.55
30875;BME280;17581;43.222;27.924;2023-04-21T02:57:47;100143.97;;;13.56;72.55
30875;BME280;17581;43.222;27.924;2023-04-21T03:00:13;100157.00;;;13.61;72.59
30875;BME280;17581;43.222;27.924;2023-04-21T03:02:39;100158.16;;;13.58;72.57
30875;BME280;17581;43.222;27.924;2023-04-21T03:05:05;100148.34;;;13.40;73.05
30875;BME280;17581;43.222;27.924;2023-04-21T03:07:31;100163.31;;;13.52;73.47
30875;BME280;17581;43.222;27.924;2023-04-21T03:09:56;100155.75;;;13.55;73.14
30875;BME280;17581;43.222;27.924;2023-04-21T03:12:21;100161.25;;;13.63;72.83
30875;BME280;17581;43.222;27.924;2023-04-21T03:14:47;100146.72;;;13.64;72.71
30875;BME280;17581;43.222;27.924;2023-04-21T03:17:12;100160.09;;;13.66;72.72
30875;BME280;17581;43.222;27.924;2023-04-21T03:19:38;100160.78;;;13.68;72.38
30875;BME280;17581;43.222;27.924;2023-04-21T03:22:04;100158.94;;;13.69;72.60
30875;BME280;17581;43.222;27.924;2023-04-21T03:24:30;100160.09;;;13.66;72.68
30875;BME280;17581;43.222;27.924;2023-04-21T03:26:56;100165.50;;;13.66;72.36
30875;BME280;17581;43.222;27.924;2023-04-21T03:29:21;100166.25;;;13.58;72.67
30875;BME280;17581;43.222;27.924;2023-04-21T03:31:47;100159.69;;;13.43;73.09
30875;BME280;17581;43.222;27.924;2023-04-21T03:34:12;100165.41;;;13.40;73.43
30875;BME280;17581;43.222;27.924;2023-04-21T03:36:38;100169.22;;;13.30;73.93
30875;BME280;17581;43.222;27.924;2023-04-21T03:39:03;100164.72;;;13.21;74.65
30875;BME280;17581;43.222;27.924;2023-04-21T03:41:29;100173.53;;;13.40;74.47
30875;BME280;17581;43.222;27.924;2023-04-21T03:43:54;100157.72;;;13.45;74.05
30875;BME280;17581;43.222;27.924;2023-04-21T03:46:20;100162.56;;;13.42;73.86
30875;BME280;17581;43.222;27.924;2023-04-21T03:48:47;100155.84;;;13.46;74.18
30875;BME280;17581;43.222;27.924;2023-04-21T03:51:13;100155.94;;;13.54;73.92
30875;BME280;17581;43.222;27.924;2023-04-21T03:53:38;100159.31;;;13.56;73.69
30875;BME280;17581;43.222;27.924;2023-04-21T03:56:04;100171.84;;;13.57;74.04
30875;BME280;17581;43.222;27.924;2023-04-21T03:58:29;100174.91;;;13.62;74.28
30875;BME280;17581;43.222;27.924;2023-04-21T04:00:55;100171.28;;;13.71;73.72
30875;BME280;17581;43.222;27.924;2023-04-21T04:03:21;100173.34;;;13.77;73.30
30875;BME280;17581;43.222;27.924;2023-04-21T04:05:46;100182.44;;;13.76;73.49
30875;BME280;17581;43.222;27.924;2023-04-21T04:08:12;100182.94;;;13.72;73.59
30875;BME280;17581;43.222;27.924;2023-04-21T04:10:37;100185.09;;;13.68;73.81
30875;BME280;17581;43.222;27.924;2023-04-21T04:13:03;100188.78;;;13.67;73.89
30875;BME280;17581;43.222;27.924;2023-04-21T04:15:28;100195.38;;;13.64;74.11
30875;BME280;17581;43.222;27.924;2023-04-21T04:17:54;100201.31;;;13.68;73.87
30875;BME280;17581;43.222;27.924;2023-04-21T04:20:20;100199.41;;;13.60;73.98
30875;BME280;17581;43.222;27.924;2023-04-21T04:22:45;100203.78;;;13.61;74.66
30875;BME280;17581;43.222;27.924;2023-04-21T04:25:11;100206.72;;;13.68;74.72
30875;BME280;17581;43.222;27.924;2023-04-21T04:27:39;100195.59;;;13.71;74.49
30875;BME280;17581;43.222;27.924;2023-04-21T04:30:05;100210.97;;;13.71;73.92
30875;BME280;17581;43.222;27.924;2023-04-21T04:32:31;100197.63;;;13.69;74.36
30875;BME280;17581;43.222;27.924;2023-04-21T04:34:57;100213.28;;;13.83;73.83
30875;BME280;17581;43.222;27.924;2023-04-21T04:37:23;100211.25;;;13.85;73.43
30875;BME280;17581;43.222;27.924;2023-04-21T04:39:52;100212.81;;;13.88;73.31
30875;BME280;17581;43.222;27.924;2023-04-21T04:42:18;100217.28;;;13.97;73.06
30875;BME280;17581;43.222;27.924;2023-04-21T04:44:45;100206.69;;;14.03;72.99
30875;BME280;17581;43.222;27.924;2023-04-21T04:47:11;100185.84;;;13.96;72.53
30875;BME280;17581;43.222;27.924;2023-04-21T04:49:37;100212.63;;;14.07;72.54
30875;BME280;17581;43.222;27.924;2023-04-21T04:52:02;100202.19;;;13.94;72.12
30875;BME280;17581;43.222;27.924;2023-04-21T04:54:28;100168.78;;;13.78;72.06
30875;BME280;17581;43.222;27.924;2023-04-21T04:56:53;100203.69;;;14.06;71.72
30875;BME280;17581;43.222;27.924;2023-04-21T04:59:20;100189.00;;;14.09;71.43
30875;BME280;17581;43.222;27.924;2023-04-21T05:01:45;100194.94;;;14.12;71.34
30875;BME280;17581;43.222;27.924;2023-04-21T05:04:10;100199.72;;;14.18;71.10
30875;BME280;17581;43.222;27.924;2023-04-21T05:06:40;100195.84;;;14.21;71.21
30875;BME280;17581;43.222;27.924;2023-04-21T05:09:06;100195.97;;;14.19;70.67
30875;BME280;17581;43.222;27.924;2023-04-21T05:11:31;100205.84;;;14.29;70.31
30875;BME280;17581;43.222;27.924;2023-04-21T05:13:57;100202.47;;;14.27;70.14
30875;BME280;17581;43.222;27.924;2023-04-21T05:16:22;100198.97;;;14.34;69.77
30875;BME280;17581;43.222;27.924;2023-04-21T05:18:48;100200.44;;;14.29;69.73
30875;BME280;17581;43.222;27.924;2023-04-21T05:21:27;100200.69;;;14.35;69.84
30875;BME280;17581;43.222;27.924;2023-04-21T05:23:57;100194.34;;;14.27;69.51
30875;BME280;17581;43.222;27.924;2023-04-21T05:26:26;100205.47;;;14.41;69.55
30875;BME280;17581;43.222;27.924;2023-04-21T05:28:53;100211.22;;;14.46;69.33
30875;BME280;17581;43.222;27.924;2023-04-21T05:31:20;100214.09;;;14.45;69.48
30875;BME280;17581;43.222;27.924;2023-04-21T05:33:45;100211.44;;;14.53;69.37
30875;BME280;17581;43.222;27.924;2023-04-21T05:36:10;100213.81;;;14.56;69.24
30875;BME280;17581;43.222;27.924;2023-04-21T05:38:36;100222.91;;;14.47;69.55
30875;BME280;17581;43.222;27.924;2023-04-21T05:41:02;100211.28;;;14.54;69.09
30875;BME280;17581;43.222;27.924;2023-04-21T05:43:28;100210.78;;;14.59;69.30
30875;BME280;17581;43.222;27.924;2023-04-21T05:45:54;100197.13;;;14.60;68.96
30875;BME280;17581;43.222;27.924;2023-04-21T05:48:19;100202.25;;;14.71;68.92
30875;BME280;17581;43.222;27.924;2023-04-21T05:50:45;100193.28;;;14.71;69.03
30875;BME280;17581;43.222;27.924;2023-04-21T05:53:10;100196.06;;;14.87;68.65
30875;BME280;17581;43.222;27.924;2023-04-21T05:55:36;100195.72;;;14.90;68.10
30875;BME280;17581;43.222;27.924;2023-04-21T05:58:02;100201.22;;;15.06;67.83
30875;BME280;17581;43.222;27.924;2023-04-21T06:00:28;100210.75;;;15.26;66.94
30875;BME280;17581;43.222;27.924;2023-04-21T06:02:53;100217.88;;;15.27;66.46
30875;BME280;17581;43.222;27.924;2023-04-21T06:05:19;100213.50;;;15.35;65.92
30875;BME280;17581;43.222;27.924;2023-04-21T06:07:45;100216.72;;;15.38;65.63
30875;BME280;17581;43.222;27.924;2023-04-21T06:10:12;100202.81;;;15.41;65.55
30875;BME280;17581;43.222;27.924;2023-04-21T06:12:38;100220.31;;;15.47;64.66
30875;BME280;17581;43.222;27.924;2023-04-21T06:15:04;100211.94;;;15.32;64.45
30875;BME280;17581;43.222;27.924;2023-04-21T06:17:30;100211.78;;;15.25;64.85
30875;BME280;17581;43.222;27.924;2023-04-21T06:19:55;100226.66;;;15.21;65.37
30875;BME280;17581;43.222;27.924;2023-04-21T06:22:22;100233.50;;;14.92;65.29
30875;BME280;17581;43.222;27.924;2023-04-21T06:24:47;100227.88;;;14.59;65.54
30875;BME280;17581;43.222;27.924;2023-04-21T06:27:13;100229.69;;;14.07;66.76
30875;BME280;17581;43.222;27.924;2023-04-21T06:29:39;100242.16;;;14.00;67.09
30875;BME280;17581;43.222;27.924;2023-04-21T06:32:05;100254.91;;;13.90;67.51
30875;BME280;17581;43.222;27.924;2023-04-21T06:34:30;100253.75;;;13.75;67.96
30875;BME280;17581;43.222;27.924;2023-04-21T06:36:55;100258.13;;;13.58;68.81
30875;BME280;17581;43.222;27.924;2023-04-21T06:39:21;100264.84;;;13.54;68.03
30875;BME280;17581;43.222;27.924;2023-04-21T06:41:46;100269.16;;;13.47;68.20
30875;BME280;17581;43.222;27.924;2023-04-21T06:44:12;100272.53;;;13.32;67.40
30875;BME280;17581;43.222;27.924;2023-04-21T06:46:41;100266.81;;;13.35;67.30
30875;BME280;17581;43.222;27.924;2023-04-21T06:49:07;100274.97;;;13.25;66.81
30875;BME280;17581;43.222;27.924;2023-04-21T06:51:33;100278.84;;;13.23;66.58
30875;BME280;17581;43.222;27.924;2023-04-21T06:53:58;100281.28;;;13.16;67.31
30875;BME280;17581;43.222;27.924;2023-04-21T06:56:28;100274.81;;;12.99;67.23
30875;BME280;17581;43.222;27.924;2023-04-21T06:58:55;100285.03;;;12.96;67.05
30875;BME280;17581;43.222;27.924;2023-04-21T07:01:21;100286.47;;;12.90;67.52
30875;BME280;17581;43.222;27.924;2023-04-21T07:03:51;100291.59;;;12.93;67.39
30875;BME280;17581;43.222;27.924;2023-04-21T07:06:17;100266.47;;;12.83;67.59
30875;BME280;17581;43.222;27.924;2023-04-21T07:08:42;100273.38;;;12.95;67.41
30875;BME280;17581;43.222;27.924;2023-04-21T07:11:08;100266.19;;;12.86;67.60
30875;BME280;17581;43.222;27.924;2023-04-21T07:13:33;100281.50;;;12.95;67.28
30875;BME280;17581;43.222;27.924;2023-04-21T07:15:59;100271.13;;;12.91;66.74
30875;BME280;17581;43.222;27.924;2023-04-21T07:18:24;100280.72;;;13.03;66.62
30875;BME280;17581;43.222;27.924;2023-04-21T07:20:50;100263.72;;;13.02;66.88
30875;BME280;17581;43.222;27.924;2023-04-21T07:23:15;100270.94;;;13.12;66.29
30875;BME280;17581;43.222;27.924;2023-04-21T07:25:41;100264.22;;;13.16;65.93
30875;BME280;17581;43.222;27.924;2023-04-21T07:28:06;100263.91;;;13.19;65.40
30875;BME280;17581;43.222;27.924;2023-04-21T07:30:32;100257.53;;;13.20;65.35
30875;BME280;17581;43.222;27.924;2023-04-21T07:32:57;100258.22;;;13.22;65.28
30875;BME280;17581;43.222;27.924;2023-04-21T07:35:23;100252.50;;;13.25;65.36
30875;BME280;17581;43.222;27.924;2023-04-21T07:37:49;100248.44;;;13.21;65.26
30875;BME280;17581;43.222;27.924;2023-04-21T07:40:14;100255.38;;;13.23;65.32
30875;BME280;17581;43.222;27.924;2023-04-21T07:42:40;100255.38;;;13.23;65.46
30875;BME280;17581;43.222;27.924;2023-04-21T07:45:06;100256.44;;;13.30;65.58
30875;BME280;17581;43.222;27.924;2023-04-21T07:47:32;100246.50;;;13.31;65.06
30875;BME280;17581;43.222;27.924;2023-04-21T07:49:57;100241.06;;;13.40;63.79
30875;BME280;17581;43.222;27.924;2023-04-21T07:52:23;100251.09;;;13.48;63.53
30875;BME280;17581;43.222;27.924;2023-04-21T07:54:48;100256.28;;;13.59;63.43
30875;BME280;17581;43.222;27.924;2023-04-21T07:57:14;100257.44;;;13.74;62.90
30875;BME280;17581;43.222;27.924;2023-04-21T07:59:40;100257.97;;;13.95;62.63
30875;BME280;17581;43.222;27.924;2023-04-21T08:02:06;100258.97;;;14.12;61.81
30875;BME280;17581;43.222;27.924;2023-04-21T08:04:32;100255.66;;;14.36;60.41
30875;BME280;17581;43.222;27.924;2023-04-21T08:06:57;100250.13;;;14.45;59.19
30875;BME280;17581;43.222;27.924;2023-04-21T08:09:23;100250.28;;;14.69;59.25
30875;BME280;17581;43.222;27.924;2023-04-21T08:11:48;100268.00;;;14.90;57.89
30875;BME280;17581;43.222;27.924;2023-04-21T08:14:14;100271.66;;;15.14;56.98
30875;BME280;17581;43.222;27.924;2023-04-21T08:16:39;100279.16;;;15.20;56.37
30875;BME280;17581;43.222;27.924;2023-04-21T08:19:07;100280.53;;;15.33;56.18
30875;BME280;17581;43.222;27.924;2023-04-21T08:21:33;100282.94;;;15.36;56.62
30875;BME280;17581;43.222;27.924;2023-04-21T08:23:59;100280.53;;;15.33;54.14
30875;BME280;17581;43.222;27.924;2023-04-21T08:26:24;100279.88;;;15.31;54.96
30875;BME280;17581;43.222;27.924;2023-04-21T08:28:50;100275.31;;;15.31;55.90
30875;BME280;17581;43.222;27.924;2023-04-21T08:31:18;100279.25;;;15.11;56.96
30875;BME280;17581;43.222;27.924;2023-04-21T08:33:43;100281.53;;;15.23;57.04
30875;BME280;17581;43.222;27.924;2023-04-21T08:36:09;100269.94;;;15.05;57.67
30875;BME280;17581;43.222;27.924;2023-04-21T08:38:39;100275.97;;;15.25;57.59
30875;BME280;17581;43.222;27.924;2023-04-21T08:41:04;100263.22;;;15.17;56.86
30875;BME280;17581;43.222;27.924;2023-04-21T08:43:30;100265.31;;;15.32;56.79
30875;BME280;17581;43.222;27.924;2023-04-21T08:45:56;100275.31;;;15.31;56.47
30875;BME280;17581;43.222;27.924;2023-04-21T08:48:22;100268.38;;;15.45;56.58
30875;BME280;17581;43.222;27.924;2023-04-21T08:50:50;100260.47;;;15.51;55.82
30875;BME280;17581;43.222;27.924;2023-04-21T08:53:16;100262.53;;;15.57;55.12
30875;BME280;17581;43.222;27.924;2023-04-21T08:55:42;100269.84;;;15.73;55.50
30875;BME280;17581;43.222;27.924;2023-04-21T08:58:08;100260.91;;;15.81;54.60
30875;BME280;17581;43.222;27.924;2023-04-21T09:00:35;100269.41;;;16.02;53.30
30875;BME280;17581;43.222;27.924;2023-04-21T09:03:01;100263.13;;;16.01;52.01
30875;BME280;17581;43.222;27.924;2023-04-21T09:05:31;100265.81;;;15.85;52.09
30875;BME280;17581;43.222;27.924;2023-04-21T09:08:13;100266.31;;;15.97;52.37
30875;BME280;17581;43.222;27.924;2023-04-21T09:10:47;100261.09;;;16.03;52.10
30875;BME280;17581;43.222;27.924;2023-04-21T09:13:13;100256.34;;;16.21;51.95
30875;BME280;17581;43.222;27.924;2023-04-21T09:15:50;100259.41;;;16.26;50.89
30875;BME280;17581;43.222;27.924;2023-04-21T09:18:27;100258.22;;;16.29;51.15
30875;BME280;17581;43.222;27.924;2023-04-21T09:21:07;100258.38;;;16.44;51.03
30875;BME280;17581;43.222;27.924;2023-04-21T09:23:47;100244.59;;;16.45;50.69
30875;BME280;17581;43.222;27.924;2023-04-21T09:26:14;100260.56;;;16.64;51.13
30875;BME280;17581;43.222;27.924;2023-04-21T09:28:48;100244.09;;;16.74;50.70
30875;BME280;17581;43.222;27.924;2023-04-21T09:31:19;100248.16;;;16.78;51.31
30875;BME280;17581;43.222;27.924;2023-04-21T09:34:16;100247.72;;;16.97;50.57
30875;BME280;17581;43.222;27.924;2023-04-21T09:36:42;100230.47;;;16.82;48.69
30875;BME280;17581;43.222;27.924;2023-04-21T09:39:09;100250.09;;;17.00;49.67
30875;BME280;17581;43.222;27.924;2023-04-21T09:41:34;100245.72;;;16.91;50.23
30875;BME280;17581;43.222;27.924;2023-04-21T09:44:00;100250.75;;;17.10;50.07
30875;BME280;17581;43.222;27.924;2023-04-21T09:46:27;100244.97;;;17.13;47.85
30875;BME280;17581;43.222;27.924;2023-04-21T09:48:54;100235.44;;;17.17;46.66
30875;BME280;17581;43.222;27.924;2023-04-21T09:51:21;100231.03;;;17.16;46.40
30875;BME280;17581;43.222;27.924;2023-04-21T09:53:52;100239.16;;;17.24;46.40
30875;BME280;17581;43.222;27.924;2023-04-21T09:56:20;100237.47;;;17.23;46.01
30875;BME280;17581;43.222;27.924;2023-04-21T09:58:48;100236.31;;;17.18;46.65
30875;BME280;17581;43.222;27.924;2023-04-21T10:01:16;100235.41;;;17.25;46.31
30875;BME280;17581;43.222;27.924;2023-04-21T10:03:43;100230.66;;;17.19;45.71
30875;BME280;17581;43.222;27.924;2023-04-21T10:06:10;100224.13;;;17.06;45.70
30875;BME280;17581;43.222;27.924;2023-04-21T10:08:36;100224.97;;;17.06;46.19
30875;BME280;17581;43.222;27.924;2023-04-21T10:11:02;100240.72;;;17.11;46.28
30875;BME280;17581;43.222;27.924;2023-04-21T10:13:29;100244.31;;;17.03;45.95
30875;BME280;17581;43.222;27.924;2023-04-21T10:16:05;100245.38;;;16.94;46.20
30875;BME280;17581;43.222;27.924;2023-04-21T10:18:37;100244.09;;;16.74;46.37
30875;BME280;17581;43.222;27.924;2023-04-21T10:21:08;100237.28;;;16.70;46.87
30875;BME280;17581;43.222;27.924;2023-04-21T10:23:44;100235.63;;;16.69;47.27
30875;BME280;17581;43.222;27.924;2023-04-21T10:26:18;100231.00;;;16.77;47.44
30875;BME280;17581;43.222;27.924;2023-04-21T10:28:57;100219.47;;;16.75;47.76
30875;BME280;17581;43.222;27.924;2023-04-21T10:31:34;100229.56;;;16.98;47.11
30875;BME280;17581;43.222;27.924;2023-04-21T10:39:03;100228.25;;;17.32;45.69
30875;BME280;17581;43.222;27.924;2023-04-21T10:41:30;100210.66;;;17.43;45.78
30875;BME280;17581;43.222;27.924;2023-04-21T10:44:14;100211.75;;;17.65;45.33
30875;BME280;17581;43.222;27.924;2023-04-21T10:49:29;100213.66;;;18.24;44.69
30875;BME280;17581;43.222;27.924;2023-04-21T10:54:28;100229.53;;;18.35;43.26
30875;BME280;17581;43.222;27.924;2023-04-21T10:56:56;100225.69;;;18.30;43.79
30875;BME280;17581;43.222;27.924;2023-04-21T10:59:23;100228.25;;;18.31;43.48
30875;BME280;17581;43.222;27.924;2023-04-21T11:01:48;100234.72;;;18.30;42.83
30875;BME280;17581;43.222;27.924;2023-04-21T11:04:15;100228.75;;;18.12;42.84
30875;BME280;17581;43.222;27.924;2023-04-21T11:06:40;100225.19;;;17.89;43.32
30875;BME280;17581;43.222;27.924;2023-04-21T11:09:06;100230.03;;;17.79;43.95
30875;BME280;17581;43.222;27.924;2023-04-21T11:11:31;100230.78;;;17.65;44.67
30875;BME280;17581;43.222;27.924;2023-04-21T11:14:00;100240.50;;;17.59;44.87
30875;BME280;17581;43.222;27.924;2023-04-21T11:16:25;100224.88;;;17.53;45.51
30875;BME280;17581;43.222;27.924;2023-04-21T11:18:51;100232.75;;;17.48;44.86
30875;BME280;17581;43.222;27.924;2023-04-21T11:21:18;100236.09;;;17.27;45.70
30875;BME280;17581;43.222;27.924;2023-04-21T11:23:51;100234.03;;;17.29;45.60
30875;BME280;17581;43.222;27.924;2023-04-21T11:26:17;100220.44;;;17.29;45.38
30875;BME280;17581;43.222;27.924;2023-04-21T11:28:46;100214.06;;;17.14;45.44
30875;BME280;17581;43.222;27.924;2023-04-21T11:31:13;100215.13;;;17.36;45.46
30875;BME280;17581;43.222;27.924;2023-04-21T11:33:39;100221.91;;;17.40;45.01
30875;BME280;17581;43.222;27.924;2023-04-21T11:36:06;100212.84;;;17.48;43.88
30875;BME280;17581;43.222;27.924;2023-04-21T11:38:39;100198.28;;;17.71;43.91
30875;BME280;17581;43.222;27.924;2023-04-21T11:41:05;100205.97;;;17.90;43.15
30875;BME280;17581;43.222;27.924;2023-04-21T11:43:31;100213.28;;;17.90;42.91
30875;BME280;17581;43.222;27.924;2023-04-21T11:46:12;100209.22;;;17.86;43.12
30875;BME280;17581;43.222;27.924;2023-04-21T11:48:42;100215.44;;;17.72;43.46
30875;BME280;17581;43.222;27.924;2023-04-21T11:51:13;100232.19;;;17.61;43.77
30875;BME280;17581;43.222;27.924;2023-04-21T11:53:39;100215.22;;;17.51;43.63
30875;BME280;17581;43.222;27.924;2023-04-21T11:56:05;100225.09;;;17.43;44.65
30875;BME280;17581;43.222;27.924;2023-04-21T11:58:31;100236.69;;;17.37;45.14
30875;BME280;17581;43.222;27.924;2023-04-21T12:00:56;100217.00;;;17.35;45.21
30875;BME280;17581;43.222;27.924;2023-04-21T12:03:21;100221.59;;;17.35;46.04
30875;BME280;17581;43.222;27.924;2023-04-21T12:05:55;100221.06;;;17.39;46.14
30875;BME280;17581;43.222;27.924;2023-04-21T12:08:20;100215.53;;;17.25;45.42
30875;BME280;17581;43.222;27.924;2023-04-21T12:10:47;100207.13;;;17.42;45.61
30875;BME280;17581;43.222;27.924;2023-04-21T12:13:21;100212.59;;;17.65;44.62
30875;BME280;17581;43.222;27.924;2023-04-21T12:15:47;100216.78;;;17.76;44.28
30875;BME280;17581;43.222;27.924;2023-04-21T12:18:13;100222.63;;;17.65;43.64
30875;BME280;17581;43.222;27.924;2023-04-21T12:20:48;100214.66;;;17.32;44.37
30875;BME280;17581;43.222;27.924;2023-04-21T12:23:13;100219.00;;;17.11;45.23
30875;BME280;17581;43.222;27.924;2023-04-21T12:25:39;100218.50;;;17.07;46.03
30875;BME280;17581;43.222;27.924;2023-04-21T12:28:07;100193.38;;;17.05;46.49
30875;BME280;17581;43.222;27.924;2023-04-21T12:30:32;100208.41;;;17.24;46.59
30875;BME280;17581;43.222;27.924;2023-04-21T12:32:58;100206.03;;;17.52;46.35
30875;BME280;17581;43.222;27.924;2023-04-21T12:35:24;100203.59;;;17.65;46.17
30875;BME280;17581;43.222;27.924;2023-04-21T12:37:49;100209.34;;;17.70;46.08
30875;BME280;17581;43.222;27.924;2023-04-21T12:40:15;100197.75;;;17.76;45.64
30875;BME280;17581;43.222;27.924;2023-04-21T12:42:40;100199.31;;;17.70;44.58
30875;BME280;17581;43.222;27.924;2023-04-21T12:45:06;100191.19;;;17.31;43.80
30875;BME280;17581;43.222;27.924;2023-04-21T12:47:32;100186.38;;;17.11;44.35
30875;BME280;17581;43.222;27.924;2023-04-21T12:49:57;100183.22;;;16.99;44.00